Time;durP1;ratioP1;P1;durP2;ratioP2;P2;SDS_P1;SDS_P2;PMS_P1;PMS_P2;Temp;Humidity;BMP_temperature;BMP_pressure;BME280_temperature;BME280_humidity;BME280_pressure;Samples;Min_cycle;Max_cycle;Signal;HPM_P1;HPM_P2
2021/04/12 00:21:29;;;;;;;5.70;5.30;;;6.10;99.90;;;;;;4973957;28;20462;-87
2021/04/12 00:24:27;;;;;;;5.37;4.97;;;6.10;99.90;;;;;;5046002;28;20447;-87
2021/04/12 00:27:46;;;;;;;5.10;4.60;;;6.00;99.90;;;;;;5044515;28;20490;-87
2021/04/12 00:37:40;;;;;;;6.53;5.80;;;5.90;99.90;;;;;;5037067;28;20483;-89
2021/04/12 00:40:44;;;;;;;6.40;5.90;;;5.80;99.90;;;;;;5046304;28;21039;-88
2021/04/12 00:47:41;;;;;;;5.53;5.03;;;5.80;99.90;;;;;;5015919;28;20438;-89
2021/04/12 00:54:18;;;;;;;6.77;6.17;;;5.70;99.90;;;;;;5047712;28;20464;-89
2021/04/12 00:57:10;;;;;;;5.93;5.30;;;5.70;99.90;;;;;;5048193;28;20455;-89
2021/04/12 01:00:10;;;;;;;5.57;5.07;;;5.60;99.90;;;;;;5048917;28;20540;-88
2021/04/12 01:17:37;;;;;;;6.37;5.87;;;5.50;99.90;;;;;;4921540;29;20970;-88
2021/04/12 01:27:35;;;;;;;6.87;6.27;;;5.40;99.90;;;;;;4967589;28;20464;-88
2021/04/12 01:34:17;;;;;;;7.50;6.80;;;5.40;99.90;;;;;;4975661;28;20431;-88
2021/04/12 01:41:35;;;;;;;7.23;6.57;;;5.30;99.90;;;;;;4915845;28;20875;-89
2021/04/12 01:44:39;;;;;;;6.43;5.83;;;5.30;99.90;;;;;;5042982;28;20444;-89
2021/04/12 01:47:51;;;;;;;7.57;6.60;;;5.30;99.90;;;;;;5050205;28;20910;-88
2021/04/12 01:57:50;;;;;;;7.50;6.60;;;5.30;99.90;;;;;;4937114;29;20499;-89
2021/04/12 02:01:09;;;;;;;8.20;7.17;;;5.30;99.90;;;;;;5038635;28;20481;-89
2021/04/12 02:07:30;;;;;;;7.80;7.10;;;5.30;99.90;;;;;;5040705;28;20424;-88
2021/04/12 02:24:41;;;;;;;;;;;;;;;;;;;;;
2021/04/12 02:27:58;;;;;;;7.70;7.00;;;5.20;99.90;;;;;;4899772;29;20540;-88
2021/04/12 02:31:21;;;;;;;8.00;7.20;;;5.10;99.90;;;;;;4932483;29;21556;-88
2021/04/12 02:34:11;;;;;;;8.67;7.77;;;5.10;99.90;;;;;;4993686;28;20501;-88
2021/04/12 02:44:16;;;;;;;9.23;8.33;;;5.10;99.90;;;;;;4967547;28;20437;-88
2021/04/12 02:47:27;;;;;;;8.10;7.40;;;5.00;99.90;;;;;;5011036;28;20445;-88
2021/04/12 02:50:33;;;;;;;8.57;7.77;;;5.10;99.90;;;;;;5003139;28;20461;-88
2021/04/12 02:56:36;;;;;;;11.00;8.50;;;5.00;99.90;;;;;;5044904;28;20200;-88
2021/04/12 02:59:24;;;;;;;9.63;8.63;;;5.00;99.90;;;;;;5060768;28;20534;-88
2021/04/12 03:02:39;;;;;;;8.73;7.93;;;4.90;99.90;;;;;;5064254;28;20448;-88
2021/04/12 03:05:55;;;;;;;9.57;8.53;;;4.90;99.90;;;;;;4995336;28;20530;-89
2021/04/12 03:12:35;;;;;;;8.70;7.80;;;5.00;99.90;;;;;;5020139;28;20515;-88
2021/04/12 03:19:50;;;;;;;8.60;7.90;;;5.00;99.90;;;;;;4993199;28;20820;-88
2021/04/12 03:23:05;;;;;;;;;;;;;;;;;;;;;
2021/04/12 03:26:27;;;;;;;7.80;7.00;;;5.00;99.90;;;;;;5062023;28;20416;-88
2021/04/12 03:29:45;;;;;;;9.40;8.40;;;5.00;99.90;;;;;;5068420;28;20448;-88
2021/04/12 03:36:35;;;;;;;9.77;8.73;;;4.90;99.90;;;;;;4979443;28;20459;-88
2021/04/12 03:46:44;;;;;;;9.17;8.20;;;4.90;99.90;;;;;;5039679;28;20562;-88
2021/04/12 04:20:45;;;;;;;10.13;9.00;;;4.80;99.90;;;;;;5022759;28;20230;-88
2021/04/12 04:34:15;;;;;;;12.27;10.27;;;4.90;99.90;;;;;;4990722;28;20463;-88
2021/04/12 04:41:00;;;;;;;12.37;10.90;;;4.80;99.90;;;;;;4971527;28;20455;-87
2021/04/12 04:58:08;;;;;;;;;;;;;;;;;;;;;
2021/04/12 05:25:25;;;;;;;9.17;8.27;;;4.60;99.90;;;;;;4871450;29;20451;-88
2021/04/12 05:29:18;;;;;;;;;;;;;;;;;;;;;
2021/04/12 05:36:22;;;;;;;12.23;10.73;;;4.60;99.90;;;;;;4943768;28;20493;-89
2021/04/12 05:46:43;;;;;;;13.03;11.73;;;4.70;99.90;;;;;;4941671;29;20429;-89
2021/04/12 06:10:39;;;;;;;15.93;12.50;;;4.50;99.90;;;;;;4843618;29;20565;-87
2021/04/12 06:13:45;;;;;;;15.27;13.77;;;4.60;99.90;;;;;;4885680;29;20491;-85
2021/04/12 06:16:55;;;;;;;16.77;13.13;;;4.70;99.90;;;;;;4995059;28;20219;-87
2021/04/12 06:20:01;;;;;;;15.00;13.50;;;4.80;99.90;;;;;;5040122;28;20494;-85
2021/04/12 06:22:49;;;;;;;15.30;13.27;;;4.80;99.90;;;;;;5032647;28;20212;-87
2021/04/12 06:26:05;;;;;;;17.20;15.07;;;4.80;99.90;;;;;;5038115;28;20426;-86
2021/04/12 06:28:52;;;;;;;15.90;13.87;;;4.90;99.90;;;;;;5043987;28;20903;-86
2021/04/12 06:31:51;;;;;;;16.90;14.13;;;4.90;99.90;;;;;;5021367;28;20837;-85
2021/04/12 06:34:54;;;;;;;15.70;13.83;;;5.00;99.90;;;;;;5025452;28;20860;-85
2021/04/12 06:37:48;;;;;;;15.83;14.20;;;5.20;99.90;;;;;;5034316;28;20505;-84
2021/04/12 06:40:43;;;;;;;21.47;15.80;;;5.30;99.90;;;;;;5050799;28;20491;-86
2021/04/12 06:43:44;;;;;;;16.23;14.73;;;5.40;99.90;;;;;;5050730;28;20545;-86
2021/04/12 06:46:44;;;;;;;15.03;13.60;;;5.40;99.90;;;;;;5056083;28;20494;-85
2021/04/12 06:49:50;;;;;;;15.37;13.77;;;5.40;99.90;;;;;;5042990;28;20471;-86
2021/04/12 06:53:02;;;;;;;16.20;13.57;;;5.50;99.90;;;;;;5032294;28;20452;-86
2021/04/12 06:56:05;;;;;;;13.50;12.07;;;5.50;99.90;;;;;;5034959;28;20482;-83
2021/04/12 06:59:09;;;;;;;14.37;12.90;;;5.50;99.90;;;;;;5044703;28;20460;-83
2021/04/12 07:02:00;;;;;;;14.63;12.43;;;5.60;99.90;;;;;;5043266;28;20517;-83
2021/04/12 07:05:08;;;;;;;14.20;12.77;;;5.60;99.90;;;;;;5038736;28;20473;-90
2021/04/12 07:08:16;;;;;;;16.27;13.97;;;5.60;99.90;;;;;;5050839;28;20464;-86
2021/04/12 07:11:18;;;;;;;13.73;11.07;;;5.70;99.90;;;;;;5047787;28;20506;-86
2021/04/12 07:14:37;;;;;;;14.10;11.20;;;5.80;99.90;;;;;;5036874;28;21011;-86
2021/04/12 07:17:29;;;;;;;14.90;11.63;;;5.80;99.90;;;;;;5036203;28;20933;-86
2021/04/12 07:20:32;;;;;;;14.27;11.60;;;5.70;99.90;;;;;;5036260;28;20829;-86
2021/04/12 07:23:43;;;;;;;15.53;13.57;;;5.80;99.90;;;;;;5052766;28;20456;-84
2021/04/12 07:26:57;;;;;;;13.87;11.80;;;5.80;99.90;;;;;;5039837;28;20444;-83
2021/04/12 07:29:58;;;;;;;13.40;12.10;;;5.80;99.90;;;;;;5053716;28;20494;-84
2021/04/12 07:32:58;;;;;;;13.77;12.47;;;5.90;99.90;;;;;;5053349;28;20449;-84
2021/04/12 07:36:02;;;;;;;16.63;13.27;;;6.00;99.90;;;;;;5052299;28;20494;-85
2021/04/12 07:39:10;;;;;;;16.83;15.00;;;6.10;99.90;;;;;;5041728;28;20511;-84
2021/04/12 07:42:10;;;;;;;17.33;14.70;;;6.10;99.90;;;;;;5047867;28;20451;-85
2021/04/12 07:45:26;;;;;;;16.70;14.93;;;6.20;99.90;;;;;;5051058;28;20489;-85
2021/04/12 07:48:38;;;;;;;17.33;15.63;;;6.20;99.90;;;;;;4994526;28;20480;-85
2021/04/12 07:51:28;;;;;;;18.00;16.07;;;6.20;99.90;;;;;;5031444;28;20465;-87
2021/04/12 07:54:42;;;;;;;16.70;14.90;;;6.20;99.90;;;;;;5039695;28;20455;-86
2021/04/12 07:57:50;;;;;;;17.13;13.33;;;6.30;99.90;;;;;;5018805;28;20451;-86
2021/04/12 08:00:59;;;;;;;15.30;13.50;;;6.50;99.90;;;;;;5032994;28;20460;-86
2021/04/12 08:03:58;;;;;;;16.20;14.63;;;6.60;99.90;;;;;;5033598;28;20475;-85
2021/04/12 08:07:20;;;;;;;23.20;16.13;;;6.90;99.90;;;;;;5053440;28;20798;-85
2021/04/12 08:10:14;;;;;;;16.73;15.00;;;7.00;99.90;;;;;;5031681;28;20473;-86
2021/04/12 08:13:15;;;;;;;16.60;13.47;;;7.10;99.90;;;;;;5034290;28;20512;-90
2021/04/12 08:16:31;;;;;;;20.33;14.70;;;7.30;99.90;;;;;;5041020;28;20933;-85
2021/04/12 08:19:42;;;;;;;15.70;14.20;;;7.30;99.90;;;;;;5041631;28;20951;-86
2021/04/12 08:22:47;;;;;;;14.90;13.40;;;7.30;99.90;;;;;;5004539;28;20876;-86
2021/04/12 08:25:42;;;;;;;18.33;14.63;;;7.20;99.90;;;;;;5043313;28;20480;-86
2021/04/12 08:28:46;;;;;;;16.43;14.73;;;7.30;99.90;;;;;;5034895;28;20463;-86
2021/04/12 08:31:45;;;;;;;17.97;15.17;;;7.40;99.90;;;;;;5025374;28;20452;-86
2021/04/12 08:34:40;;;;;;;18.20;15.50;;;7.60;99.90;;;;;;5033219;28;20440;-85
2021/04/12 08:37:31;;;;;;;15.87;14.13;;;7.90;99.70;;;;;;5038774;28;20441;-89
2021/04/12 08:40:46;;;;;;;16.53;14.93;;;8.00;99.30;;;;;;5049519;28;20471;-86
2021/04/12 08:43:52;;;;;;;17.47;15.10;;;7.90;99.00;;;;;;5033525;28;20488;-86
2021/04/12 08:46:45;;;;;;;16.67;14.87;;;7.90;99.30;;;;;;5027407;28;20536;-87
2021/04/12 08:49:41;;;;;;;17.27;15.57;;;8.00;98.30;;;;;;5036199;28;21060;-84
2021/04/12 08:52:59;;;;;;;14.43;13.03;;;8.20;98.20;;;;;;5038791;28;20453;-86
2021/04/12 08:55:49;;;;;;;16.43;15.03;;;8.30;97.10;;;;;;5011011;28;20450;-87
2021/04/12 08:58:45;;;;;;;17.20;14.20;;;8.30;96.00;;;;;;5029563;28;20560;-86
2021/04/12 09:02:12;;;;;;;14.23;12.80;;;8.20;95.40;;;;;;5040948;28;20520;-86
2021/04/12 09:05:12;;;;;;;15.00;13.40;;;8.20;95.30;;;;;;5014502;28;20477;-86
2021/04/12 09:08:16;;;;;;;13.30;12.00;;;8.30;95.00;;;;;;4997939;28;20470;-87
2021/04/12 09:11:15;;;;;;;13.10;11.90;;;8.50;94.70;;;;;;5039414;28;20473;-86
2021/04/12 09:14:13;;;;;;;14.67;13.37;;;8.80;94.60;;;;;;5029862;28;20476;-87
2021/04/12 09:17:06;;;;;;;14.53;12.93;;;8.80;93.50;;;;;;5037688;28;20453;-86
2021/04/12 09:20:00;;;;;;;12.87;11.57;;;8.70;93.30;;;;;;5050351;28;20465;-87
2021/04/12 09:23:04;;;;;;;13.50;12.03;;;8.70;92.90;;;;;;5014359;28;20454;-86
2021/04/12 09:26:01;;;;;;;12.37;11.23;;;9.00;93.10;;;;;;5017498;28;20477;-86
2021/04/12 09:28:44;;;;;;;14.30;11.77;;;9.00;92.30;;;;;;5033906;28;20618;-86
2021/04/12 09:31:47;;;;;;;13.37;11.97;;;9.00;92.20;;;;;;5026339;28;20456;-86
2021/04/12 09:34:53;;;;;;;13.40;12.10;;;8.90;92.80;;;;;;5031873;28;20445;-87
2021/04/12 09:38:00;;;;;;;18.60;12.00;;;9.00;92.90;;;;;;5048347;28;20447;-87
2021/04/12 09:40:54;;;;;;;12.90;11.20;;;9.20;91.40;;;;;;5055630;28;20480;-87
2021/04/12 09:43:58;;;;;;;13.30;11.90;;;9.60;90.30;;;;;;5056634;28;20493;-86
2021/04/12 09:46:59;;;;;;;11.20;10.20;;;9.80;90.30;;;;;;5053912;28;20489;-86
2021/04/12 09:50:08;;;;;;;12.50;10.70;;;10.00;86.60;;;;;;5038573;28;20491;-87
2021/04/12 09:52:49;;;;;;;10.77;9.63;;;10.10;86.00;;;;;;5037001;28;20544;-87
2021/04/12 09:55:56;;;;;;;13.23;11.20;;;10.40;84.60;;;;;;5034606;28;20491;-86
2021/04/12 09:59:03;;;;;;;9.80;8.80;;;10.50;82.20;;;;;;5035761;28;20492;-90
2021/04/12 10:01:50;;;;;;;10.77;9.67;;;10.40;81.00;;;;;;5028747;28;20549;-89
2021/04/12 10:04:52;;;;;;;8.83;7.77;;;10.20;79.20;;;;;;5035505;28;20485;-87
2021/04/12 10:08:08;;;;;;;11.53;7.77;;;10.00;78.20;;;;;;5034394;28;20483;-86
2021/04/12 10:10:49;;;;;;;8.30;7.57;;;10.00;76.20;;;;;;5016463;28;20467;-87
2021/04/12 10:13:28;;;;;;;9.40;8.60;;;10.20;77.60;;;;;;5030672;28;20485;-87
2021/04/12 10:16:08;;;;;;;8.63;7.80;;;10.40;76.20;;;;;;5039591;28;20528;-88
2021/04/12 10:18:48;;;;;;;8.90;8.10;;;10.50;74.20;;;;;;5049247;28;20456;-88
2021/04/12 10:21:25;;;;;;;7.50;6.80;;;10.50;74.80;;;;;;5050275;28;20446;-87
2021/04/12 10:23:58;;;;;;;9.23;7.27;;;10.40;74.60;;;;;;5045767;28;20453;-87
2021/04/12 10:26:29;;;;;;;8.73;7.03;;;10.30;74.10;;;;;;5048275;28;20516;-85
2021/04/12 10:29:07;;;;;;;7.60;6.30;;;10.30;73.90;;;;;;5057641;28;20460;-87
2021/04/12 10:31:38;;;;;;;7.17;6.63;;;10.20;72.70;;;;;;5056592;28;21035;-87
2021/04/12 10:34:12;;;;;;;6.27;5.60;;;10.30;71.80;;;;;;5050275;28;20445;-88
2021/04/12 10:36:50;;;;;;;11.80;9.47;;;10.20;71.50;;;;;;5041286;28;20446;-86
2021/04/12 10:39:27;;;;;;;8.53;7.63;;;10.40;71.90;;;;;;5043045;28;20528;-86
2021/04/12 10:42:00;;;;;;;6.90;6.30;;;10.70;72.30;;;;;;5059667;28;20444;-87
2021/04/12 10:44:33;;;;;;;8.67;5.17;;;11.00;68.80;;;;;;5056323;28;20488;-88
2021/04/12 10:47:07;;;;;;;5.77;5.27;;;11.70;65.90;;;;;;5057222;28;20453;-88
2021/04/12 10:50:00;;;;;;;5.47;4.97;;;11.70;62.30;;;;;;5045446;28;20483;-87
2021/04/12 10:52:37;;;;;;;6.00;5.37;;;11.70;62.50;;;;;;5042534;28;20449;-88
2021/04/12 10:55:13;;;;;;;6.87;6.30;;;11.50;62.90;;;;;;5040063;28;20457;-89
2021/04/12 10:57:47;;;;;;;6.33;5.30;;;11.40;64.00;;;;;;5045519;28;20457;-87
2021/04/12 11:00:30;;;;;;;6.13;5.53;;;11.50;63.40;;;;;;5058048;28;20472;-88
2021/04/12 11:03:33;;;;;;;6.83;5.00;;;11.40;61.10;;;;;;5049427;28;20508;-87
2021/04/12 11:06:26;;;;;;;5.50;5.00;;;11.70;61.30;;;;;;5026129;28;20484;-87
2021/04/12 11:09:01;;;;;;;5.40;4.90;;;12.00;59.00;;;;;;5041269;28;20465;-88
2021/04/12 11:11:35;;;;;;;6.10;4.00;;;12.10;58.50;;;;;;5040714;28;20456;-87
2021/04/12 11:14:13;;;;;;;5.30;4.07;;;12.30;57.60;;;;;;5041498;28;20458;-87
2021/04/12 11:49:48;;;;;;;5.17;2.93;;;14.00;50.90;;;;;;4961624;26;20490;-88
2021/04/12 12:47:40;;;;;;;;;;;;;;;;;;;;;
2021/04/12 13:08:51;;;;;;;;;;;;;;;;;;;;;
2021/04/12 13:22:33;;;;;;;;;;;;;;;;;;;;;
2021/04/12 13:26:10;;;;;;;;;;;;;;;;;;;;;
2021/04/12 13:36:46;;;;;;;3.80;3.40;;;14.50;44.50;;;;;;4776347;30;20460;-87
2021/04/12 13:39:59;;;;;;;3.03;2.73;;;14.90;44.00;;;;;;4831403;29;20865;-86
2021/04/12 14:58:37;;;;;;;4.70;2.63;;;12.60;47.20;;;;;;4828879;29;20455;-88
2021/04/12 15:11:44;;;;;;;2.27;2.07;;;12.20;45.20;;;;;;5065136;28;20468;-86
2021/04/12 15:14:22;;;;;;;6.87;5.40;;;12.90;44.40;;;;;;5061760;28;20456;-86
2021/04/12 15:17:34;;;;;;;7.03;5.43;;;13.70;43.70;;;;;;5063088;28;20517;-87
2021/04/12 15:20:15;;;;;;;5.23;3.27;;;13.70;44.30;;;;;;5038905;28;20464;-88
2021/04/12 15:23:08;;;;;;;3.80;2.43;;;13.30;44.30;;;;;;5060999;28;20488;-87
2021/04/12 15:25:56;;;;;;;3.87;3.43;;;12.70;43.90;;;;;;5059336;28;20479;-87
2021/04/12 15:28:27;;;;;;;4.13;3.23;;;12.90;44.20;;;;;;5058120;28;20527;-87
2021/04/12 15:31:02;;;;;;;2.53;2.33;;;12.60;44.60;;;;;;5061447;28;20507;-88
2021/04/12 15:33:32;;;;;;;4.23;3.17;;;12.30;45.30;;;;;;5059437;28;20499;-88
2021/04/12 15:36:16;;;;;;;10.53;6.97;;;12.00;46.00;;;;;;5062684;28;20445;-86
2021/04/12 15:42:19;;;;;;;10.67;4.13;;;11.40;47.60;;;;;;5058375;28;20463;-87
2021/04/12 15:44:50;;;;;;;3.30;3.00;;;11.20;48.40;;;;;;5064228;28;20793;-86
2021/04/12 15:47:25;;;;;;;3.33;2.77;;;11.30;48.70;;;;;;5060295;28;20425;-85
2021/04/12 15:50:06;;;;;;;6.53;4.87;;;11.50;48.40;;;;;;5065285;28;20487;-87
2021/04/12 15:52:48;;;;;;;8.77;5.67;;;11.50;48.60;;;;;;5061387;28;20452;-85
2021/04/12 15:55:24;;;;;;;4.43;3.13;;;11.60;48.90;;;;;;5051645;28;20453;-86
2021/04/12 15:58:44;;;;;;;4.43;3.63;;;11.60;48.30;;;;;;5052189;28;20449;-85
2021/04/12 16:01:36;;;;;;;8.50;4.67;;;11.50;48.40;;;;;;5037971;28;20441;-86
2021/04/12 16:04:05;;;;;;;4.90;3.43;;;11.20;48.00;;;;;;5053991;28;20449;-86
2021/04/12 16:06:35;;;;;;;4.73;3.60;;;10.90;48.50;;;;;;5050093;28;20469;-86
2021/04/12 16:09:10;;;;;;;3.80;3.40;;;10.60;48.10;;;;;;5053918;28;20450;-87
2021/04/12 16:11:49;;;;;;;12.37;6.70;;;10.40;48.80;;;;;;5051575;28;20528;-86
2021/04/12 16:14:34;;;;;;;11.37;6.00;;;10.20;50.70;;;;;;5057781;28;20995;-83
2021/04/12 16:17:10;;;;;;;5.40;3.27;;;10.10;51.20;;;;;;5059169;28;20445;-86
2021/04/12 16:19:47;;;;;;;8.23;3.67;;;10.00;52.10;;;;;;5053315;28;20486;-85
2021/04/12 16:22:23;;;;;;;7.10;5.60;;;9.90;53.40;;;;;;5050829;28;20425;-86
2021/04/12 16:25:17;;;;;;;6.37;5.47;;;9.90;54.50;;;;;;5051933;28;20452;-85
2021/04/12 16:28:10;;;;;;;9.33;5.60;;;9.90;54.70;;;;;;5055167;28;20511;-85
2021/04/12 16:34:43;;;;;;;7.00;4.70;;;9.90;55.20;;;;;;5020807;28;20508;-86
2021/04/12 16:37:38;;;;;;;7.60;4.83;;;9.80;53.70;;;;;;5014862;28;20926;-86
2021/04/12 16:40:26;;;;;;;9.00;5.40;;;9.70;54.60;;;;;;5043221;22;20519;-86
2021/04/12 16:43:11;;;;;;;3.30;2.30;;;9.70;55.00;;;;;;5059741;28;20472;-86
2021/04/12 16:46:05;;;;;;;4.47;3.90;;;9.70;55.50;;;;;;5064184;28;20480;-90
2021/04/12 16:49:17;;;;;;;6.50;3.70;;;9.80;55.30;;;;;;5072919;28;20401;-85
2021/04/12 16:51:57;;;;;;;8.07;4.63;;;9.60;54.60;;;;;;5041619;28;20445;-86
2021/04/12 16:54:32;;;;;;;7.43;3.60;;;9.60;55.40;;;;;;5037797;28;20870;-86
2021/04/12 16:57:07;;;;;;;3.63;3.33;;;9.60;55.80;;;;;;5045980;28;20606;-85
2021/04/12 16:59:42;;;;;;;2.77;2.27;;;9.60;55.90;;;;;;5056340;28;20467;-86
2021/04/12 17:02:21;;;;;;;2.60;2.40;;;9.60;55.70;;;;;;5046583;28;20908;-85
2021/04/12 17:04:53;;;;;;;2.60;2.40;;;9.60;55.40;;;;;;5048446;28;20453;-87
2021/04/12 17:07:30;;;;;;;3.20;2.90;;;9.60;55.90;;;;;;5046887;28;20441;-87
2021/04/12 17:10:07;;;;;;;3.63;3.20;;;9.50;56.80;;;;;;5041612;28;20500;-88
2021/04/12 17:12:36;;;;;;;2.70;2.50;;;9.50;58.30;;;;;;5039096;28;20448;-87
2021/04/12 17:15:06;;;;;;;3.40;2.43;;;9.40;58.50;;;;;;5050726;28;20449;-87
2021/04/12 17:17:43;;;;;;;5.67;2.80;;;9.30;57.80;;;;;;5057169;28;20517;-85
2021/04/12 17:20:14;;;;;;;3.57;2.77;;;9.30;57.80;;;;;;5049882;28;20469;-85
2021/04/12 17:22:45;;;;;;;3.43;2.10;;;9.20;57.80;;;;;;5047163;28;20469;-86
2021/04/12 17:25:15;;;;;;;2.83;1.87;;;9.10;56.50;;;;;;5044101;28;20476;-86
2021/04/12 17:27:46;;;;;;;2.90;2.17;;;9.00;56.70;;;;;;5039613;28;20444;-87
2021/04/12 17:30:23;;;;;;;3.10;2.30;;;8.90;56.10;;;;;;5039479;28;20484;-86
2021/04/12 17:32:53;;;;;;;5.93;3.00;;;8.80;56.50;;;;;;5043317;28;20437;-85
2021/04/12 17:35:28;;;;;;;4.40;2.83;;;8.80;56.90;;;;;;5043788;28;20540;-85
2021/04/12 17:38:02;;;;;;;6.47;2.60;;;8.60;56.40;;;;;;5052586;28;20470;-85
2021/04/12 17:40:31;;;;;;;4.70;2.50;;;8.50;56.50;;;;;;5040632;28;20460;-85
2021/04/12 17:43:04;;;;;;;2.73;2.50;;;8.40;57.20;;;;;;5041221;28;20453;-86
2021/04/12 17:45:34;;;;;;;8.00;4.17;;;8.40;57.90;;;;;;5051185;28;20480;-85
2021/04/12 17:48:09;;;;;;;5.00;2.97;;;8.30;58.40;;;;;;5058041;28;20437;-86
2021/04/12 17:50:38;;;;;;;4.43;2.50;;;8.20;58.10;;;;;;5057494;28;20456;-85
2021/04/12 17:53:13;;;;;;;3.00;2.70;;;8.10;57.90;;;;;;5057567;28;20433;-86
2021/04/12 17:55:44;;;;;;;2.33;2.13;;;8.00;58.20;;;;;;5045170;28;20448;-86
2021/04/12 17:58:17;;;;;;;2.53;2.33;;;8.00;58.30;;;;;;5044612;28;20446;-86
2021/04/12 18:00:48;;;;;;;3.97;2.10;;;7.90;58.20;;;;;;5056085;28;20457;-86
2021/04/12 18:03:18;;;;;;;3.97;2.10;;;7.80;58.40;;;;;;5055780;28;20456;-88
2021/04/12 18:05:52;;;;;;;3.00;2.20;;;7.70;58.60;;;;;;5046373;28;20465;-87
2021/04/12 18:08:32;;;;;;;3.93;3.33;;;7.70;58.60;;;;;;5043024;28;20453;-90
2021/04/12 18:11:03;;;;;;;5.90;3.57;;;7.60;59.30;;;;;;5042101;28;20465;-87
2021/04/12 18:13:46;;;;;;;3.90;3.33;;;7.50;60.30;;;;;;5044525;28;20465;-87
2021/04/12 18:16:15;;;;;;;3.50;3.20;;;7.60;60.80;;;;;;5048392;28;20479;-87
2021/04/12 18:18:48;;;;;;;4.37;2.63;;;7.40;61.00;;;;;;5048280;28;20454;-87
2021/04/12 18:21:21;;;;;;;6.80;5.13;;;7.30;61.60;;;;;;5048718;28;20506;-86
2021/04/12 18:23:51;;;;;;;5.60;3.87;;;7.20;63.00;;;;;;5046815;28;20442;-87
2021/04/12 18:26:27;;;;;;;6.80;3.40;;;7.20;64.60;;;;;;5043516;28;20491;-87
2021/04/12 18:28:57;;;;;;;11.93;7.30;;;7.10;65.20;;;;;;5042255;28;20500;-86
2021/04/12 18:31:46;;;;;;;7.20;4.03;;;7.10;65.50;;;;;;5046696;28;20476;-87
2021/04/12 18:34:51;;;;;;;10.27;4.97;;;7.00;65.80;;;;;;5045247;28;20445;-92
2021/04/12 18:37:22;;;;;;;7.70;4.60;;;7.10;66.00;;;;;;5048059;28;20461;-90
2021/04/12 18:40:03;;;;;;;5.47;3.37;;;7.10;66.20;;;;;;5039226;28;20477;-89
2021/04/12 18:42:34;;;;;;;6.33;3.73;;;7.10;67.30;;;;;;5038901;28;20499;-88
2021/04/12 18:45:14;;;;;;;5.20;4.00;;;7.00;67.50;;;;;;5043781;28;20437;-89
2021/04/12 18:48:22;;;;;;;13.37;9.40;;;7.00;68.40;;;;;;5046608;28;20433;-92
2021/04/12 18:50:57;;;;;;;6.60;5.60;;;7.00;69.10;;;;;;5058620;28;20457;-86
2021/04/12 18:53:31;;;;;;;6.27;4.80;;;7.10;70.00;;;;;;5048214;28;20477;-89
2021/04/12 18:56:01;;;;;;;4.40;4.00;;;7.10;70.00;;;;;;5045398;28;20450;-89
2021/04/12 18:58:45;;;;;;;4.87;4.37;;;7.10;70.40;;;;;;5042341;28;20520;-87
2021/04/12 19:01:15;;;;;;;5.10;3.47;;;7.00;70.80;;;;;;5048072;28;20468;-87
2021/04/12 19:03:52;;;;;;;6.70;4.23;;;7.00;71.50;;;;;;5049394;28;20479;-86
2021/04/12 19:06:53;;;;;;;4.87;4.37;;;7.00;71.90;;;;;;5040479;28;20468;-86
2021/04/12 19:09:29;;;;;;;8.10;6.03;;;7.10;72.40;;;;;;5158209;22;20454;-86
2021/04/12 19:12:05;;;;;;;6.90;6.20;;;7.00;72.90;;;;;;5114155;28;20443;-88
2021/04/12 19:14:55;;;;;;;12.40;7.07;;;7.00;73.90;;;;;;5110665;28;20439;-86
2021/04/12 19:17:30;;;;;;;20.13;12.83;;;7.00;74.30;;;;;;5111850;28;20396;-87
2021/04/12 19:20:53;;;;;;;7.60;6.00;;;6.90;74.60;;;;;;5107496;28;20522;-86
2021/04/12 19:30:32;;;;;;;;;;;;;;;;;;;;;
2021/04/12 19:33:24;;;;;;;4.07;3.67;;;6.70;75.30;;;;;;5038943;28;20538;-87
2021/04/12 19:36:08;;;;;;;5.40;4.10;;;6.70;76.10;;;;;;5040394;28;20441;-87
2021/04/12 19:53:05;;;;;;;6.13;5.50;;;6.10;78.20;;;;;;5053573;28;20507;-88
2021/04/12 19:56:35;;;;;;;6.40;4.57;;;6.00;78.90;;;;;;5095651;28;20524;-88
2021/04/12 19:59:37;;;;;;;4.47;4.03;;;6.00;79.40;;;;;;5029557;28;20455;-88
2021/04/12 20:02:33;;;;;;;10.80;4.70;;;5.90;80.30;;;;;;5084057;28;20446;-86
2021/04/12 20:08:09;;;;;;;6.77;4.37;;;5.90;82.20;;;;;;5240610;22;20496;-88
2021/04/12 20:11:00;;;;;;;13.03;6.57;;;5.80;82.20;;;;;;5075303;28;20443;-87
2021/04/12 20:13:51;;;;;;;5.27;4.30;;;5.80;83.20;;;;;;5072025;28;20440;-87
2021/04/12 20:16:40;;;;;;;5.00;4.47;;;5.80;82.80;;;;;;5066537;28;20800;-87
2021/04/12 20:19:29;;;;;;;;;;;;;;;;;;;;;
2021/04/12 20:29:39;;;;;;;28.50;19.33;;;5.60;84.20;;;;;;5031444;28;20466;-88
2021/04/12 20:33:22;;;;;;;;;;;;;;;;;;;;;
2021/04/12 20:39:29;;;;;;;12.57;8.70;;;5.50;86.40;;;;;;5001614;28;20516;-88
2021/04/12 20:59:11;;;;;;;6.80;5.77;;;5.30;85.80;;;;;;4973832;28;20432;-88
2021/04/12 21:08:56;;;;;;;7.53;6.83;;;5.20;88.50;;;;;;4953728;28;20444;-88
2021/04/12 21:11:24;;;;;;;7.80;6.97;;;5.20;89.80;;;;;;5061307;28;20440;-88
2021/04/12 21:13:56;;;;;;;8.07;6.40;;;5.10;90.10;;;;;;5063399;28;20454;-88
2021/04/12 21:16:30;;;;;;;9.47;7.40;;;5.10;90.10;;;;;;5058905;28;20428;-88
2021/04/12 21:19:09;;;;;;;8.10;7.20;;;5.00;90.50;;;;;;5056204;28;20439;-88
2021/04/12 21:21:39;;;;;;;12.20;7.60;;;5.10;90.80;;;;;;5057468;28;20425;-87
2021/04/12 21:24:19;;;;;;;8.67;7.77;;;5.10;91.10;;;;;;5073279;28;20450;-86
2021/04/12 21:26:53;;;;;;;10.73;8.10;;;5.10;91.10;;;;;;5077531;28;20463;-85
2021/04/12 21:29:27;;;;;;;8.40;7.53;;;5.00;91.10;;;;;;5063626;28;20491;-86
2021/04/12 21:31:58;;;;;;;8.67;7.60;;;4.90;91.20;;;;;;5066477;28;20459;-86
2021/04/12 21:34:29;;;;;;;10.30;8.10;;;4.90;91.30;;;;;;5070138;28;20442;-85
2021/04/12 21:40:27;;;;;;;7.63;6.43;;;4.90;91.40;;;;;;5062445;28;20416;-86
2021/04/12 21:43:01;;;;;;;12.13;7.70;;;4.80;91.50;;;;;;5062541;28;20447;-86
2021/04/12 21:45:33;;;;;;;9.00;7.57;;;4.70;91.80;;;;;;5057848;28;20478;-86
2021/04/12 21:48:00;;;;;;;8.55;7.10;;;4.80;92.60;;;;;;5057271;28;20439;-86
2021/04/12 21:50:33;;;;;;;10.93;8.07;;;4.80;92.00;;;;;;5068900;28;20225;-86
2021/04/12 21:53:20;;;;;;;9.83;8.00;;;4.70;92.00;;;;;;5058097;28;20906;-87
2021/04/12 21:56:13;;;;;;;11.88;8.40;;;4.70;92.60;;;;;;5057621;28;20442;-86
2021/04/12 21:59:04;;;;;;;12.83;7.70;;;4.70;93.20;;;;;;5057837;28;20213;-87
2021/04/12 22:01:33;;;;;;;10.63;8.57;;;4.70;93.40;;;;;;5057152;28;20437;-86
2021/04/12 22:04:19;;;;;;;11.40;8.70;;;4.60;93.60;;;;;;5056301;28;20450;-87
2021/04/12 22:10:11;;;;;;;10.80;8.97;;;4.50;94.80;;;;;;5062105;28;20535;-86
2021/04/12 22:12:51;;;;;;;10.53;8.63;;;4.60;95.20;;;;;;5074485;28;20435;-88
2021/04/12 22:15:33;;;;;;;10.93;7.60;;;4.60;95.10;;;;;;5057135;28;20429;-87
2021/04/12 22:18:24;;;;;;;13.37;8.80;;;4.70;95.00;;;;;;5059904;28;20448;-87
2021/04/12 22:21:00;;;;;;;10.50;8.43;;;4.80;94.80;;;;;;5060306;28;21001;-86
2021/04/12 22:23:35;;;;;;;9.80;8.77;;;4.90;94.70;;;;;;5059270;28;20439;-87
2021/04/12 22:26:24;;;;;;;10.10;9.00;;;4.90;94.20;;;;;;5061060;28;20495;-87
2021/04/12 22:28:54;;;;;;;12.53;9.47;;;4.90;94.00;;;;;;5059573;28;20573;-86
2021/04/12 22:31:39;;;;;;;11.17;9.17;;;4.90;93.90;;;;;;5060658;28;20489;-86
2021/04/12 22:40:29;;;;;;;11.50;9.43;;;4.50;94.10;;;;;;5059218;28;20509;-87
2021/04/12 22:42:57;;;;;;;10.35;9.25;;;4.40;95.10;;;;;;5058890;28;21022;-86
2021/04/12 22:45:48;;;;;;;19.50;11.10;;;4.30;95.80;;;;;;5060295;28;20217;-86
2021/04/12 22:48:20;;;;;;;11.05;9.88;;;4.30;96.40;;;;;;5058528;28;20465;-86
2021/04/12 22:57:32;;;;;;;11.30;10.30;;;4.30;97.00;;;;;;4988914;28;20183;-86
2021/04/12 23:00:07;;;;;;;11.90;9.25;;;4.20;97.30;;;;;;5058352;28;20224;-86
2021/04/12 23:02:52;;;;;;;12.20;10.02;;;4.10;97.70;;;;;;5066372;28;20184;-86
2021/04/12 23:05:35;;;;;;;11.10;9.25;;;4.20;97.70;;;;;;5070704;28;20192;-86
2021/04/12 23:08:25;;;;;;;12.10;8.20;;;4.20;97.70;;;;;;5076838;28;20216;-85
2021/04/12 23:10:57;;;;;;;12.80;9.30;;;4.10;97.50;;;;;;5067883;28;20230;-85
2021/04/12 23:13:37;;;;;;;12.20;10.30;;;4.00;97.90;;;;;;5072742;28;20252;-86
2021/04/12 23:16:24;;;;;;;10.98;9.60;;;4.00;98.50;;;;;;5069030;28;20205;-86
2021/04/12 23:19:07;;;;;;;12.07;9.43;;;3.90;99.00;;;;;;5073913;28;20176;-85
2021/04/12 23:21:35;;;;;;;10.63;9.48;;;4.00;99.60;;;;;;5074225;28;20195;-85
2021/04/12 23:24:05;;;;;;;11.88;10.32;;;4.00;99.50;;;;;;5065319;28;20204;-85
2021/04/12 23:26:33;;;;;;;11.93;10.10;;;3.90;99.60;;;;;;5058747;28;20212;-85
2021/04/12 23:29:00;;;;;;;14.57;9.68;;;3.90;99.90;;;;;;5079066;28;20192;-85
2021/04/12 23:31:28;;;;;;;11.70;10.40;;;3.80;99.90;;;;;;5069401;28;20196;-85
2021/04/12 23:34:00;;;;;;;11.95;10.50;;;3.80;99.90;;;;;;5071776;28;20187;-84
2021/04/12 23:36:29;;;;;;;11.55;10.25;;;3.90;99.90;;;;;;5075048;28;20195;-86
2021/04/12 23:38:58;;;;;;;12.80;11.60;;;3.80;99.90;;;;;;5075439;28;20188;-85
2021/04/12 23:41:27;;;;;;;12.32;11.07;;;3.90;99.90;;;;;;5080285;28;20187;-85
2021/04/12 23:43:57;;;;;;;12.25;11.00;;;3.90;99.90;;;;;;5078978;28;20208;-86
2021/04/12 23:46:27;;;;;;;12.63;11.35;;;3.90;99.90;;;;;;5080180;28;20214;-86